KMTH/MTH METAR and TAF weather

Enter ICAO airport designator
Station Type Date Time Source
KMTH METAR 2022/01/29 00:53 UTC NOAA

KMTH 290053Z AUTO 30008KT 21/17 A2999 RMK AO2 SLP154 T02060172 $


Station Type Date Time Source
KMTH Decoded METAR 2022/01/29 00:53 UTC NOAA

MARATHON AIRPORT, FL, United States (KMTH) 24-44N 81-03W 2M
Jan 28, 2022 - 07:53 PM EST / 2022.01.29 0053 UTC
Wind: from the WNW (300 degrees) at 9 MPH (8 KT):0
Temperature: 69.1 F (20.6 C)
Dew Point: 63.0 F (17.2 C)
Relative Humidity: 80%
Pressure (altimeter): 29.99 in. Hg (1015 hPa)
ob: KMTH 290053Z AUTO 30008KT 21/17 A2999 RMK AO2 SLP154 T02060172
cycle: 1

Station Type Date Time Source
KMTH TAF 2022/01/28 20:58 UTC NOAA

TAF
AMD KMTH 281956Z 2820/2918 30009G18KT P6SM BKN016 OVC050
TEMPO 2822/2823 SCT020
FM290400 31012G19KT P6SM VCSH SCT020 OVC050
FM290900 33019G26KT P6SM OVC050
FM291600 33016G23KT P6SM OVC050

Example: see airport list